createdAt,value
2022-07-31T00:00:24.760Z,6.90
2022-07-31T00:02:52.060Z,7.53
2022-07-31T00:05:19.418Z,18.83
2022-07-31T00:07:46.769Z,8.13
2022-07-31T00:10:14.282Z,8.95
2022-07-31T00:12:41.594Z,7.57
2022-07-31T00:15:13.278Z,7.28
2022-07-31T00:17:42.291Z,9.40
2022-07-31T00:20:14.101Z,7.35
2022-07-31T00:22:42.282Z,7.25
2022-07-31T00:25:11.182Z,6.63
2022-07-31T00:27:41.041Z,7.80
2022-07-31T00:30:09.205Z,6.90
2022-07-31T00:32:36.917Z,7.25
2022-07-31T00:35:04.775Z,6.80
2022-07-31T00:37:36.427Z,8.00
2022-07-31T00:40:06.275Z,7.15
2022-07-31T00:42:35.125Z,7.35
2022-07-31T00:45:02.751Z,8.20
2022-07-31T00:47:30.277Z,7.07
2022-07-31T00:49:57.747Z,7.38
2022-07-31T00:52:25.356Z,8.05
2022-07-31T00:54:52.635Z,8.27
2022-07-31T00:57:19.890Z,7.47
2022-07-31T00:59:48.136Z,8.57
2022-07-31T01:02:15.715Z,8.00
2022-07-31T01:04:44.589Z,7.32
2022-07-31T01:07:13.445Z,8.30
2022-07-31T01:09:42.630Z,7.07
2022-07-31T01:12:15.345Z,7.22
2022-07-31T01:14:55.536Z,11.90
2022-07-31T01:17:25.542Z,8.10
2022-07-31T01:19:53.535Z,9.40
2022-07-31T01:22:46.042Z,8.38
2022-07-31T01:25:32.094Z,8.23
2022-07-31T01:28:37.959Z,8.23
2022-07-31T01:31:26.742Z,8.23
2022-07-31T01:34:23.708Z,7.45
2022-07-31T01:37:03.414Z,7.10
2022-07-31T01:39:34.218Z,7.28
2022-07-31T01:42:05.542Z,7.30
2022-07-31T01:44:39.736Z,7.93
2022-07-31T01:47:08.065Z,7.22
2022-07-31T01:49:36.561Z,7.38
2022-07-31T01:52:05.146Z,7.28
2022-07-31T01:54:34.188Z,8.27
2022-07-31T01:57:04.462Z,7.75
2022-07-31T01:59:34.989Z,7.25
2022-07-31T02:02:04.925Z,7.50
2022-07-31T02:04:33.303Z,7.40
2022-07-31T02:07:02.383Z,7.03
2022-07-31T02:09:31.355Z,7.43
2022-07-31T02:11:59.359Z,7.40
2022-07-31T02:14:27.811Z,7.40
2022-07-31T02:16:55.435Z,7.28
2022-07-31T02:19:23.354Z,7.15
2022-07-31T02:21:51.081Z,7.47
2022-07-31T02:24:18.435Z,6.93
2022-07-31T02:26:47.221Z,6.60
2022-07-31T02:29:19.798Z,6.43
2022-07-31T02:32:03.002Z,7.43
2022-07-31T02:34:37.646Z,6.65
2022-07-31T02:37:05.182Z,6.90
2022-07-31T02:39:33.325Z,6.10
2022-07-31T02:42:01.871Z,6.68
2022-07-31T02:44:34.182Z,6.30
2022-07-31T02:47:05.389Z,5.90
2022-07-31T02:49:36.573Z,5.68
2022-07-31T02:52:05.929Z,6.30
2022-07-31T02:54:36.921Z,6.28
2022-07-31T02:57:04.349Z,5.93
2022-07-31T02:59:37.053Z,6.03
2022-07-31T03:02:07.411Z,5.40
2022-07-31T03:04:35.879Z,5.63
2022-07-31T03:07:06.148Z,6.13
2022-07-31T03:09:33.643Z,5.65
2022-07-31T03:12:01.929Z,5.63
2022-07-31T03:14:33.207Z,5.53
2022-07-31T03:17:00.759Z,5.50
2022-07-31T03:19:28.910Z,4.93
2022-07-31T03:21:56.529Z,5.30
2022-07-31T03:24:25.846Z,5.45
2022-07-31T03:26:53.557Z,5.47
2022-07-31T03:29:41.694Z,5.80
2022-07-31T03:32:08.532Z,5.28
2022-07-31T03:34:38.870Z,5.22
2022-07-31T03:37:06.506Z,5.72
2022-07-31T03:39:34.106Z,5.72
2022-07-31T03:42:02.562Z,5.65
2022-07-31T03:44:31.972Z,5.43
2022-07-31T03:46:59.693Z,5.63
2022-07-31T03:49:27.227Z,5.38
2022-07-31T03:51:54.842Z,5.40
2022-07-31T03:54:22.169Z,5.13
2022-07-31T03:56:51.408Z,4.95
2022-07-31T03:59:19.612Z,5.10
2022-07-31T04:01:57.883Z,5.65
2022-07-31T04:04:26.013Z,5.18
2022-07-31T04:06:53.603Z,5.20
2022-07-31T04:09:21.065Z,4.40
2022-07-31T04:11:48.718Z,5.03
2022-07-31T04:14:16.165Z,4.82
2022-07-31T04:16:43.599Z,4.25
2022-07-31T04:19:11.374Z,5.00
2022-07-31T04:21:38.797Z,4.63
2022-07-31T04:24:06.756Z,5.15
2022-07-31T04:26:34.104Z,4.85
2022-07-31T04:29:01.520Z,4.78
2022-07-31T04:31:28.979Z,5.40
2022-07-31T04:33:57.195Z,4.88
2022-07-31T04:36:29.731Z,5.43
2022-07-31T04:38:59.801Z,5.53
2022-07-31T04:41:27.677Z,5.55
2022-07-31T04:44:00.995Z,5.35
2022-07-31T04:46:28.521Z,5.68
2022-07-31T04:48:56.632Z,5.45
2022-07-31T04:51:24.513Z,5.40
2022-07-31T04:53:51.874Z,5.18
2022-07-31T04:56:37.540Z,5.47
2022-07-31T04:59:08.384Z,5.72
2022-07-31T05:01:36.128Z,5.35
2022-07-31T05:04:19.314Z,5.80
2022-07-31T05:06:48.784Z,5.78
2022-07-31T05:09:19.653Z,5.43
2022-07-31T05:12:20.522Z,5.13
2022-07-31T05:14:50.377Z,5.65
2022-07-31T05:17:17.802Z,5.30
2022-07-31T05:19:45.558Z,5.38
2022-07-31T05:22:14.281Z,5.00
2022-07-31T05:24:43.139Z,4.78
2022-07-31T05:27:12.591Z,5.35
2022-07-31T05:29:50.386Z,5.32
2022-07-31T05:32:20.057Z,5.15
2022-07-31T05:35:01.919Z,4.93
2022-07-31T05:37:29.582Z,4.82
2022-07-31T05:39:57.054Z,5.28
2022-07-31T05:42:24.361Z,4.75
2022-07-31T05:44:51.757Z,4.97
2022-07-31T05:47:19.131Z,4.90
2022-07-31T05:49:49.134Z,4.90
2022-07-31T05:52:18.486Z,4.90
2022-07-31T05:54:45.909Z,5.28
2022-07-31T05:57:13.330Z,4.85
2022-07-31T06:00:00.700Z,5.68
2022-07-31T06:02:31.371Z,7.03
2022-07-31T06:04:58.711Z,4.63
2022-07-31T06:07:26.101Z,4.93
2022-07-31T06:09:53.561Z,5.03
2022-07-31T06:12:21.124Z,4.68
2022-07-31T06:14:49.422Z,4.45
2022-07-31T06:17:17.585Z,4.75
2022-07-31T06:19:45.160Z,4.55
2022-07-31T06:22:12.597Z,4.45
2022-07-31T06:24:41.694Z,4.60
2022-07-31T06:27:27.376Z,4.68
2022-07-31T06:29:59.103Z,4.80
2022-07-31T06:32:26.467Z,5.00
2022-07-31T06:34:56.500Z,4.50
2022-07-31T06:37:23.926Z,4.85
2022-07-31T06:39:54.579Z,4.50
2022-07-31T06:42:24.284Z,4.90
2022-07-31T06:44:52.656Z,4.00
2022-07-31T06:47:22.320Z,4.38
2022-07-31T06:49:50.070Z,4.20
2022-07-31T06:52:18.351Z,3.95
2022-07-31T06:54:45.881Z,3.92
2022-07-31T06:57:13.942Z,3.67
2022-07-31T06:59:41.700Z,3.78
2022-07-31T07:02:09.531Z,3.60
2022-07-31T07:04:56.232Z,3.30
2022-07-31T07:07:24.423Z,3.28
2022-07-31T07:09:59.646Z,2.90
2022-07-31T07:12:27.008Z,2.92
2022-07-31T07:14:55.860Z,2.70
2022-07-31T07:17:28.589Z,2.53
2022-07-31T07:19:56.753Z,2.55
2022-07-31T07:22:31.663Z,2.60
2022-07-31T07:25:01.107Z,2.00
2022-07-31T07:27:28.656Z,1.95
2022-07-31T07:29:56.275Z,2.13
2022-07-31T07:32:23.631Z,1.90
2022-07-31T07:35:00.289Z,1.90
2022-07-31T07:37:28.770Z,1.50
2022-07-31T07:39:56.960Z,1.50
2022-07-31T07:42:32.137Z,1.70
2022-07-31T07:44:59.482Z,1.50
2022-07-31T07:47:26.716Z,1.27
2022-07-31T07:50:15.805Z,1.70
2022-07-31T07:52:44.034Z,1.45
2022-07-31T07:55:12.617Z,1.60
2022-07-31T07:57:40.533Z,1.65
2022-07-31T08:00:10.002Z,1.42
2022-07-31T08:02:37.291Z,1.73
2022-07-31T08:05:05.560Z,1.75
2022-07-31T08:07:41.602Z,1.50
2022-07-31T08:10:10.409Z,1.42
2022-07-31T08:12:37.809Z,1.80
2022-07-31T08:15:06.038Z,1.85
2022-07-31T08:17:33.714Z,1.60
2022-07-31T08:20:00.992Z,1.80
2022-07-31T08:22:28.355Z,1.40
2022-07-31T08:24:57.093Z,1.77
2022-07-31T08:27:39.350Z,1.70
2022-07-31T08:30:08.907Z,1.60
2022-07-31T08:32:36.787Z,1.60
2022-07-31T08:35:04.264Z,2.08
2022-07-31T08:37:52.242Z,1.55
2022-07-31T08:40:19.413Z,1.60
2022-07-31T08:42:47.164Z,1.60
2022-07-31T08:45:17.550Z,1.63
2022-07-31T08:47:48.049Z,1.50
2022-07-31T08:50:17.917Z,1.58
2022-07-31T08:52:45.743Z,1.50
2022-07-31T08:55:55.224Z,1.90
2022-07-31T08:58:00.420Z,1.63
2022-07-31T09:00:28.905Z,1.58
2022-07-31T09:02:56.787Z,1.30
2022-07-31T09:05:28.286Z,1.70
2022-07-31T09:08:12.313Z,1.50
2022-07-31T09:10:50.056Z,1.38
2022-07-31T09:13:31.575Z,1.90
2022-07-31T09:15:59.579Z,1.60
2022-07-31T09:18:27.137Z,1.45
2022-07-31T09:21:00.528Z,1.50
2022-07-31T09:23:30.246Z,1.85
2022-07-31T09:26:00.352Z,1.90
2022-07-31T09:28:33.683Z,1.70
2022-07-31T09:31:01.346Z,1.60
2022-07-31T09:33:30.442Z,1.60
2022-07-31T09:35:58.765Z,1.58
2022-07-31T09:38:34.060Z,1.70
2022-07-31T09:41:53.572Z,1.67
2022-07-31T09:44:09.642Z,1.67
2022-07-31T09:46:42.992Z,1.30
2022-07-31T09:49:11.294Z,2.25
2022-07-31T09:51:40.820Z,3.28
2022-07-31T09:54:09.230Z,1.73
2022-07-31T09:56:37.053Z,1.58
2022-07-31T09:59:08.926Z,1.60
2022-07-31T10:01:41.462Z,1.60
2022-07-31T10:04:08.876Z,1.80
2022-07-31T10:06:41.181Z,1.73
2022-07-31T10:09:08.988Z,1.60
2022-07-31T10:11:41.032Z,1.70
2022-07-31T10:14:12.601Z,1.58
2022-07-31T10:16:40.801Z,1.65
2022-07-31T10:19:12.823Z,1.90
2022-07-31T10:21:45.194Z,1.80
2022-07-31T10:24:13.046Z,1.40
2022-07-31T10:26:59.732Z,1.52
2022-07-31T10:29:28.083Z,2.10
2022-07-31T10:32:01.561Z,2.00
2022-07-31T10:34:29.069Z,1.83
2022-07-31T10:37:04.412Z,1.77
2022-07-31T10:39:46.268Z,2.08
2022-07-31T10:42:32.081Z,1.80
2022-07-31T10:45:08.766Z,1.83
2022-07-31T10:47:39.300Z,1.88
2022-07-31T10:50:24.511Z,1.70
2022-07-31T10:52:53.452Z,1.60
2022-07-31T10:55:27.625Z,1.77
2022-07-31T10:58:09.409Z,1.80
2022-07-31T11:00:37.400Z,1.83
2022-07-31T11:03:21.592Z,1.75
2022-07-31T11:06:01.917Z,1.63
2022-07-31T11:08:44.713Z,1.80
2022-07-31T11:11:12.645Z,1.60
2022-07-31T11:13:51.402Z,1.80
2022-07-31T11:16:19.826Z,1.95
2022-07-31T11:19:00.979Z,1.77
2022-07-31T11:21:40.378Z,1.77
2022-07-31T11:24:14.227Z,2.00
2022-07-31T11:26:52.704Z,1.88
2022-07-31T11:30:00.933Z,2.00
2022-07-31T11:32:24.833Z,1.90
2022-07-31T11:34:59.379Z,2.25
2022-07-31T11:37:57.021Z,2.20
2022-07-31T11:40:22.480Z,1.80
2022-07-31T11:43:24.233Z,1.75
2022-07-31T11:45:49.943Z,1.80
2022-07-31T11:48:19.667Z,1.90
2022-07-31T11:50:48.120Z,1.88
2022-07-31T11:53:16.240Z,1.60
2022-07-31T11:55:48.885Z,1.80
2022-07-31T12:00:56.691Z,1.90
2022-07-31T12:03:28.848Z,2.47
2022-07-31T12:05:56.826Z,2.28
2022-07-31T12:08:25.467Z,1.88
2022-07-31T12:10:54.396Z,1.95
2022-07-31T12:13:23.608Z,1.65
2022-07-31T12:15:58.362Z,1.90
2022-07-31T12:18:28.404Z,1.80
2022-07-31T12:21:02.976Z,1.80
2022-07-31T12:23:44.426Z,1.70
2022-07-31T12:26:13.895Z,1.70
2022-07-31T12:28:41.335Z,1.60
2022-07-31T12:31:09.130Z,1.80
2022-07-31T12:33:43.853Z,1.70
2022-07-31T12:36:20.775Z,1.50
2022-07-31T12:39:02.292Z,1.63
2022-07-31T12:41:30.658Z,1.77
2022-07-31T12:44:14.413Z,2.03
2022-07-31T12:46:41.951Z,1.80
2022-07-31T12:49:09.539Z,1.67
2022-07-31T12:51:44.750Z,1.63
2022-07-31T12:54:17.701Z,2.10
2022-07-31T12:56:46.675Z,1.88
2022-07-31T12:59:14.382Z,1.83
2022-07-31T13:01:42.324Z,6.07
2022-07-31T13:04:18.300Z,2.00
2022-07-31T13:06:49.027Z,2.15
2022-07-31T13:09:16.561Z,2.08
2022-07-31T13:11:46.936Z,1.90
2022-07-31T13:14:17.251Z,1.83
2022-07-31T13:16:49.619Z,1.77
2022-07-31T13:19:17.370Z,1.98
2022-07-31T13:21:49.519Z,1.75
2022-07-31T13:24:20.444Z,1.80
2022-07-31T13:26:49.955Z,2.15
2022-07-31T13:29:18.005Z,1.90
2022-07-31T13:31:46.538Z,2.28
2022-07-31T13:34:13.904Z,1.85
2022-07-31T13:36:42.472Z,1.77
2022-07-31T13:39:11.648Z,1.80
2022-07-31T13:41:40.204Z,2.22
2022-07-31T13:44:08.252Z,1.80
2022-07-31T13:46:39.677Z,1.98
2022-07-31T13:49:10.739Z,2.03
2022-07-31T13:51:38.911Z,2.00
2022-07-31T13:58:47.072Z,1.80
2022-07-31T14:01:14.590Z,2.17
2022-07-31T14:03:42.041Z,1.90
2022-07-31T14:06:10.516Z,2.10
2022-07-31T14:08:49.651Z,1.70
2022-07-31T14:11:19.018Z,2.08
2022-07-31T14:13:46.800Z,2.10
2022-07-31T14:16:14.215Z,2.00
2022-07-31T14:18:41.563Z,2.67
2022-07-31T14:21:09.073Z,2.20
2022-07-31T14:23:40.628Z,1.85
2022-07-31T14:26:08.558Z,1.77
2022-07-31T14:28:35.918Z,2.13
2022-07-31T14:31:06.204Z,1.92
2022-07-31T14:33:33.662Z,1.85
2022-07-31T14:36:01.193Z,2.17
2022-07-31T14:38:28.446Z,2.10
2022-07-31T14:40:56.186Z,2.15
2022-07-31T14:43:23.644Z,2.25
2022-07-31T14:45:52.063Z,2.30
2022-07-31T14:48:19.706Z,2.17
2022-07-31T14:50:47.034Z,2.00
2022-07-31T14:53:19.348Z,2.10
2022-07-31T14:55:50.017Z,2.60
2022-07-31T14:58:17.461Z,2.10
2022-07-31T15:00:45.021Z,1.92
2022-07-31T15:03:12.446Z,2.20
2022-07-31T15:06:50.796Z,2.00
2022-07-31T15:08:31.779Z,2.47
2022-07-31T15:11:01.645Z,2.25
2022-07-31T15:13:29.675Z,2.25
2022-07-31T15:15:57.507Z,2.40
2022-07-31T15:18:25.883Z,2.80
2022-07-31T15:20:56.528Z,2.20
2022-07-31T15:23:24.049Z,2.20
2022-07-31T15:25:51.656Z,2.47
2022-07-31T15:28:21.677Z,2.50
2022-07-31T15:30:49.106Z,2.30
2022-07-31T15:33:16.476Z,3.05
2022-07-31T15:35:46.790Z,2.30
2022-07-31T15:38:14.157Z,2.50
2022-07-31T15:40:41.533Z,2.45
2022-07-31T15:43:09.067Z,2.78
2022-07-31T15:45:36.487Z,2.95
2022-07-31T15:48:05.880Z,2.28
2022-07-31T15:50:37.119Z,2.40
2022-07-31T15:53:07.836Z,2.45
2022-07-31T15:55:35.461Z,2.33
2022-07-31T15:58:02.840Z,2.20
2022-07-31T16:00:30.374Z,2.30
2022-07-31T16:02:58.134Z,2.10
2022-07-31T16:05:36.499Z,2.47
2022-07-31T16:08:32.839Z,2.17
2022-07-31T16:10:58.642Z,2.20
2022-07-31T16:13:27.055Z,2.30
2022-07-31T16:15:54.966Z,2.55
2022-07-31T16:18:22.628Z,2.35
2022-07-31T16:20:50.274Z,2.53
2022-07-31T16:23:18.223Z,2.60
2022-07-31T16:25:46.950Z,2.30
2022-07-31T16:28:15.249Z,2.50
2022-07-31T16:30:43.991Z,2.47
2022-07-31T16:33:15.555Z,2.38
2022-07-31T16:35:43.209Z,2.38
2022-07-31T16:38:11.028Z,2.30
2022-07-31T16:40:38.943Z,2.90
2022-07-31T16:43:49.989Z,3.00
2022-07-31T16:45:56.292Z,2.72
2022-07-31T16:48:24.093Z,2.67
2022-07-31T16:50:53.546Z,2.83
2022-07-31T16:54:10.780Z,2.70
2022-07-31T16:56:16.303Z,2.70
2022-07-31T16:58:44.338Z,2.83
2022-07-31T17:01:58.849Z,2.63
2022-07-31T17:04:03.539Z,2.92
2022-07-31T17:06:38.714Z,2.60
2022-07-31T17:09:17.047Z,2.95
2022-07-31T17:11:48.136Z,3.20
2022-07-31T17:14:21.917Z,2.83
2022-07-31T17:16:50.680Z,3.20
2022-07-31T17:19:41.571Z,3.10
2022-07-31T17:22:11.816Z,2.60
2022-07-31T17:24:51.089Z,2.80
2022-07-31T17:27:28.441Z,2.70
2022-07-31T17:29:56.205Z,2.72
2022-07-31T17:32:24.695Z,2.80
2022-07-31T17:34:52.780Z,3.05
2022-07-31T17:37:21.012Z,2.75
2022-07-31T17:39:48.730Z,3.35
2022-07-31T17:42:18.121Z,2.97
2022-07-31T17:44:55.231Z,3.00
2022-07-31T17:47:25.829Z,3.13
2022-07-31T17:49:54.993Z,3.08
2022-07-31T17:52:23.352Z,3.15
2022-07-31T17:54:52.465Z,3.00
2022-07-31T17:57:20.147Z,3.25
2022-07-31T17:59:51.416Z,3.00
2022-07-31T18:02:20.513Z,2.97
2022-07-31T18:04:48.257Z,3.60
2022-07-31T18:07:22.180Z,3.92
2022-07-31T18:09:51.672Z,3.85
2022-07-31T18:12:23.629Z,3.97
2022-07-31T18:14:52.754Z,3.70
2022-07-31T18:20:21.826Z,3.67
2022-07-31T18:22:50.723Z,3.55
2022-07-31T18:25:23.001Z,3.85
2022-07-31T18:27:52.514Z,3.55
2022-07-31T18:30:22.213Z,3.85
2022-07-31T18:32:50.628Z,4.20
2022-07-31T18:35:18.726Z,4.03
2022-07-31T18:37:47.463Z,3.75
2022-07-31T18:40:21.578Z,3.40
2022-07-31T18:42:51.085Z,3.63
2022-07-31T18:45:18.927Z,3.92
2022-07-31T18:47:47.140Z,3.70
2022-07-31T18:50:58.409Z,3.50
2022-07-31T18:53:09.186Z,3.60
2022-07-31T18:55:38.677Z,3.50
2022-07-31T18:58:08.981Z,3.90
2022-07-31T19:00:39.671Z,3.60
2022-07-31T19:03:23.175Z,3.22
2022-07-31T19:08:59.178Z,2.97
2022-07-31T19:11:36.989Z,3.60
2022-07-31T19:14:06.468Z,3.63
2022-07-31T19:16:36.569Z,3.72
2022-07-31T19:19:23.166Z,3.70
2022-07-31T19:21:57.071Z,4.35
2022-07-31T19:24:33.131Z,3.88
2022-07-31T19:27:48.114Z,4.00
2022-07-31T19:30:20.093Z,3.97
2022-07-31T19:32:50.470Z,6.30
2022-07-31T19:35:20.286Z,4.30
2022-07-31T19:37:59.961Z,3.78
2022-07-31T19:40:28.205Z,3.85
2022-07-31T19:42:59.901Z,3.55
2022-07-31T19:45:32.742Z,3.70
2022-07-31T19:48:02.400Z,3.83
2022-07-31T19:50:30.828Z,4.22
2022-07-31T19:53:01.120Z,3.60
2022-07-31T19:55:29.249Z,3.55
2022-07-31T19:58:09.025Z,4.63
2022-07-31T20:00:36.634Z,3.38
2022-07-31T20:03:05.214Z,3.65
2022-07-31T20:05:33.450Z,4.10
2022-07-31T20:08:02.484Z,3.70
2022-07-31T20:10:37.358Z,3.53
2022-07-31T20:13:04.714Z,3.55
2022-07-31T20:15:52.132Z,3.38
2022-07-31T20:18:30.097Z,3.58
2022-07-31T20:21:04.945Z,3.33
2022-07-31T20:23:38.460Z,3.30
2022-07-31T20:26:07.463Z,3.22
2022-07-31T20:28:35.830Z,3.53
2022-07-31T20:31:03.808Z,2.97
2022-07-31T20:33:32.367Z,3.67
2022-07-31T20:36:00.120Z,4.05
2022-07-31T20:38:29.366Z,2.65
2022-07-31T20:41:01.486Z,3.10
2022-07-31T20:43:29.809Z,3.03
2022-07-31T20:45:58.661Z,2.97
2022-07-31T20:48:32.304Z,2.80
2022-07-31T20:51:07.592Z,2.90
2022-07-31T20:53:35.772Z,2.70
2022-07-31T20:56:03.272Z,3.10
2022-07-31T20:58:30.777Z,3.00
2022-07-31T21:00:59.417Z,2.70
2022-07-31T21:03:27.065Z,2.53
2022-07-31T21:05:57.400Z,2.80
2022-07-31T21:08:29.368Z,2.60
2022-07-31T21:10:59.677Z,2.60
2022-07-31T21:13:29.129Z,2.40
2022-07-31T21:15:57.902Z,2.30
2022-07-31T21:18:31.510Z,2.47
2022-07-31T21:21:02.365Z,2.60
2022-07-31T21:23:29.993Z,2.45
2022-07-31T21:26:02.992Z,2.72
2022-07-31T21:28:35.197Z,2.95
2022-07-31T21:31:10.237Z,2.38
2022-07-31T21:33:41.785Z,2.40
2022-07-31T21:36:13.211Z,2.30
2022-07-31T21:38:41.089Z,2.60
2022-07-31T21:41:09.199Z,2.60
2022-07-31T21:43:45.798Z,2.30
2022-07-31T21:46:28.989Z,2.08
2022-07-31T21:48:56.612Z,2.42
2022-07-31T21:51:24.506Z,2.30
2022-07-31T21:53:52.002Z,2.50
2022-07-31T21:56:19.663Z,2.40
2022-07-31T21:58:47.295Z,2.60
2022-07-31T22:01:15.424Z,2.08
2022-07-31T22:03:43.104Z,2.40
2022-07-31T22:06:29.018Z,2.45
2022-07-31T22:08:56.472Z,2.20
2022-07-31T22:11:24.277Z,2.25
2022-07-31T22:13:52.685Z,2.30
2022-07-31T22:16:20.048Z,2.20
2022-07-31T22:18:48.733Z,2.47
2022-07-31T22:21:16.623Z,2.30
2022-07-31T22:23:45.047Z,2.17
2022-07-31T22:26:12.858Z,2.28
2022-07-31T22:28:40.634Z,2.20
2022-07-31T22:31:10.408Z,2.25
2022-07-31T22:33:38.172Z,2.60
2022-07-31T22:36:08.911Z,2.60
2022-07-31T22:38:38.108Z,4.65
2022-07-31T22:41:05.886Z,4.13
2022-07-31T22:44:11.996Z,8.75
2022-07-31T22:47:11.157Z,5.25
2022-07-31T22:49:43.718Z,4.35
2022-07-31T22:52:14.309Z,3.80
2022-07-31T22:54:44.006Z,3.42
2022-07-31T22:57:12.537Z,6.32
2022-07-31T22:59:40.184Z,3.20
2022-07-31T23:02:09.796Z,3.03
2022-07-31T23:04:37.579Z,3.20
2022-07-31T23:07:05.273Z,2.80
2022-07-31T23:09:32.709Z,2.83
2022-07-31T23:12:01.256Z,3.00
2022-07-31T23:14:31.413Z,2.60
2022-07-31T23:16:59.669Z,2.60
2022-07-31T23:19:26.970Z,3.05
2022-07-31T23:21:54.474Z,3.00
2022-07-31T23:24:21.834Z,2.45
2022-07-31T23:26:49.297Z,2.50
2022-07-31T23:29:16.686Z,2.38
2022-07-31T23:31:43.992Z,2.60
2022-07-31T23:34:11.300Z,2.72
2022-07-31T23:36:39.526Z,2.60
2022-07-31T23:39:06.878Z,2.90
2022-07-31T23:41:53.988Z,2.53
2022-07-31T23:44:25.042Z,2.65
2022-07-31T23:46:52.588Z,2.22
2022-07-31T23:49:22.017Z,2.70
2022-07-31T23:51:49.610Z,2.50
2022-07-31T23:54:17.120Z,2.92
2022-07-31T23:56:44.596Z,2.58
2022-07-31T23:59:12.032Z,3.10
